createdAt,value
2019-03-06T00:00:59.804Z,2.03
2019-03-06T00:03:28.073Z,2.10
2019-03-06T00:05:57.138Z,3.17
2019-03-06T00:08:25.486Z,2.58
2019-03-06T00:10:53.929Z,3.40
2019-03-06T00:13:22.143Z,3.60
2019-03-06T00:15:51.257Z,3.00
2019-03-06T00:18:19.618Z,3.75
2019-03-06T00:20:47.885Z,2.75
2019-03-06T00:23:16.993Z,3.25
2019-03-06T00:25:45.289Z,2.60
2019-03-06T00:28:13.697Z,2.75
2019-03-06T00:30:42.032Z,2.63
2019-03-06T00:33:10.311Z,4.40
2019-03-06T00:35:38.632Z,2.92
2019-03-06T00:38:06.899Z,2.87
2019-03-06T00:40:39.901Z,2.78
2019-03-06T00:43:08.168Z,2.93
2019-03-06T00:45:36.656Z,3.50
2019-03-06T00:48:05.732Z,3.40
2019-03-06T00:50:34.809Z,3.95
2019-03-06T00:53:03.060Z,3.97
2019-03-06T00:55:31.343Z,2.65
2019-03-06T00:57:59.607Z,3.33
2019-03-06T01:00:28.044Z,3.97
2019-03-06T01:02:56.396Z,2.78
2019-03-06T01:05:24.752Z,2.87
2019-03-06T01:07:53.037Z,2.87
2019-03-06T01:10:21.546Z,3.20
2019-03-06T01:12:49.817Z,3.72
2019-03-06T01:15:18.876Z,3.55
2019-03-06T01:17:47.167Z,4.20
2019-03-06T01:20:15.454Z,2.92
2019-03-06T01:22:45.259Z,2.60
2019-03-06T01:25:15.767Z,3.60
2019-03-06T01:27:44.140Z,3.60
2019-03-06T01:30:14.045Z,3.78
2019-03-06T01:32:42.374Z,3.83
2019-03-06T01:35:30.198Z,3.97
2019-03-06T01:38:05.780Z,3.00
2019-03-06T01:40:36.743Z,3.25
2019-03-06T01:43:08.787Z,4.03
2019-03-06T01:45:37.101Z,2.87
2019-03-06T01:48:05.408Z,3.03
2019-03-06T01:50:33.747Z,2.80
2019-03-06T01:53:02.045Z,3.15
2019-03-06T01:55:30.368Z,3.12
2019-03-06T01:57:58.664Z,3.40
2019-03-06T02:00:26.981Z,2.70
2019-03-06T02:02:56.070Z,3.90
2019-03-06T02:05:24.417Z,2.95
2019-03-06T02:07:53.265Z,5.60
2019-03-06T02:10:22.310Z,5.37
2019-03-06T02:12:50.613Z,3.30
2019-03-06T02:15:19.662Z,2.92
2019-03-06T02:17:47.964Z,2.90
2019-03-06T02:20:16.212Z,4.70
2019-03-06T02:22:44.493Z,3.33
2019-03-06T02:25:12.733Z,3.23
2019-03-06T02:27:41.892Z,3.00
2019-03-06T02:30:13.107Z,3.40
2019-03-06T02:32:41.358Z,3.93
2019-03-06T02:35:10.394Z,3.73
2019-03-06T02:37:38.799Z,3.20
2019-03-06T02:40:07.081Z,4.13
2019-03-06T02:42:35.343Z,3.63
2019-03-06T02:45:03.693Z,4.53
2019-03-06T02:47:31.976Z,4.62
2019-03-06T02:50:00.406Z,3.80
2019-03-06T02:52:28.639Z,4.15
2019-03-06T02:54:56.944Z,4.22
2019-03-06T02:57:25.990Z,4.50
2019-03-06T02:59:58.875Z,4.57
2019-03-06T03:02:37.843Z,5.03
2019-03-06T03:05:06.174Z,4.37
2019-03-06T03:07:35.737Z,4.75
2019-03-06T03:10:04.912Z,4.78
2019-03-06T03:12:43.073Z,6.07
2019-03-06T03:15:11.377Z,3.58
2019-03-06T03:17:39.661Z,3.58
2019-03-06T03:20:07.955Z,4.35
2019-03-06T03:22:36.998Z,3.58
2019-03-06T03:25:05.340Z,4.72
2019-03-06T03:27:33.692Z,3.45
2019-03-06T03:30:01.979Z,3.90
2019-03-06T03:32:30.253Z,3.83
2019-03-06T03:34:58.545Z,4.20
2019-03-06T03:37:26.828Z,4.93
2019-03-06T03:39:55.128Z,3.85
2019-03-06T03:42:23.372Z,3.67
2019-03-06T03:44:52.445Z,3.90
2019-03-06T03:47:21.492Z,3.50
2019-03-06T03:49:49.849Z,5.30
2019-03-06T03:52:18.152Z,4.15
2019-03-06T03:54:46.525Z,4.43
2019-03-06T03:57:14.907Z,3.97
2019-03-06T03:59:43.273Z,4.70
2019-03-06T04:02:11.527Z,4.28
2019-03-06T04:04:39.818Z,3.35
2019-03-06T04:07:08.104Z,4.50
2019-03-06T04:09:36.910Z,5.80
2019-03-06T04:12:05.291Z,5.62
2019-03-06T04:14:33.561Z,5.00
2019-03-06T04:17:02.039Z,4.70
2019-03-06T04:19:30.309Z,4.75
2019-03-06T04:21:58.685Z,4.30
2019-03-06T04:24:26.969Z,4.12
2019-03-06T04:26:55.375Z,5.00
2019-03-06T04:29:24.434Z,4.03
2019-03-06T04:31:52.684Z,4.30
2019-03-06T04:34:20.993Z,3.80
2019-03-06T04:36:49.292Z,4.62
2019-03-06T04:39:18.323Z,4.75
2019-03-06T04:41:46.643Z,4.10
2019-03-06T04:44:15.039Z,5.05
2019-03-06T04:46:44.115Z,5.03
2019-03-06T04:49:12.527Z,4.53
2019-03-06T04:51:40.904Z,5.15
2019-03-06T04:54:19.856Z,4.82
2019-03-06T04:56:48.156Z,4.97
2019-03-06T04:59:16.517Z,5.45
2019-03-06T05:01:44.896Z,5.37
2019-03-06T05:04:13.243Z,5.07
2019-03-06T05:06:42.301Z,4.95
2019-03-06T05:09:10.879Z,6.78
2019-03-06T05:11:39.153Z,3.92
2019-03-06T05:14:07.440Z,6.90
2019-03-06T05:16:39.285Z,3.85
2019-03-06T05:19:07.647Z,5.25
2019-03-06T05:21:36.016Z,4.77
2019-03-06T05:24:04.463Z,6.12
2019-03-06T05:26:33.531Z,4.37
2019-03-06T05:29:02.137Z,4.28
2019-03-06T05:31:30.407Z,6.18
2019-03-06T05:33:59.454Z,5.60
2019-03-06T05:36:42.682Z,5.25
2019-03-06T05:39:11.044Z,5.65
2019-03-06T05:41:39.929Z,4.87
2019-03-06T05:44:08.242Z,4.53
2019-03-06T05:46:36.537Z,5.80
2019-03-06T05:49:05.582Z,6.22
2019-03-06T05:51:33.969Z,4.35
2019-03-06T05:54:02.341Z,5.28
2019-03-06T05:56:30.619Z,3.35
2019-03-06T05:58:58.900Z,4.18
2019-03-06T06:01:27.243Z,6.25
2019-03-06T06:03:55.663Z,4.73
2019-03-06T06:06:23.993Z,4.93
2019-03-06T06:08:52.306Z,8.40
2019-03-06T06:11:20.778Z,6.30
2019-03-06T06:13:49.101Z,6.62
2019-03-06T06:16:17.379Z,5.65
2019-03-06T06:18:45.663Z,8.05
2019-03-06T06:21:20.738Z,5.43
2019-03-06T06:23:51.624Z,6.07
2019-03-06T06:26:19.904Z,7.03
2019-03-06T06:28:48.961Z,5.87
2019-03-06T06:31:17.647Z,6.10
2019-03-06T06:33:45.886Z,5.53
2019-03-06T06:36:14.468Z,6.20
2019-03-06T06:38:42.722Z,6.43
2019-03-06T06:41:11.239Z,7.55
2019-03-06T06:43:39.617Z,7.30
2019-03-06T06:46:07.867Z,6.47
2019-03-06T06:48:36.891Z,7.20
2019-03-06T06:51:07.956Z,7.72
2019-03-06T06:53:55.155Z,6.45
2019-03-06T06:56:31.179Z,6.55
2019-03-06T06:59:02.754Z,9.48
2019-03-06T07:01:36.206Z,5.20
2019-03-06T07:04:12.891Z,6.35
2019-03-06T07:06:40.940Z,5.43
2019-03-06T07:09:24.789Z,5.55
2019-03-06T07:12:08.689Z,5.85
2019-03-06T07:14:37.699Z,6.80
2019-03-06T07:17:10.351Z,5.72
2019-03-06T07:19:41.225Z,7.43
2019-03-06T07:22:19.259Z,7.75
2019-03-06T07:25:02.998Z,6.40
2019-03-06T07:27:31.033Z,6.45
2019-03-06T07:30:11.988Z,7.28
2019-03-06T07:32:48.687Z,9.15
2019-03-06T07:35:31.245Z,7.05
2019-03-06T07:38:00.967Z,8.00
2019-03-06T07:40:29.015Z,6.07
2019-03-06T07:42:58.363Z,5.80
2019-03-06T07:45:32.255Z,6.60
2019-03-06T07:48:03.822Z,6.45
2019-03-06T07:50:32.386Z,6.07
2019-03-06T07:53:12.636Z,5.47
2019-03-06T07:55:41.856Z,5.63
2019-03-06T07:58:34.620Z,5.37
2019-03-06T08:01:02.751Z,5.85
2019-03-06T08:03:31.355Z,6.80
2019-03-06T08:05:59.421Z,5.62
2019-03-06T08:08:27.497Z,5.85
2019-03-06T08:10:55.548Z,5.28
2019-03-06T08:13:23.585Z,5.15
2019-03-06T08:15:53.008Z,5.72
2019-03-06T08:18:21.123Z,4.93
2019-03-06T08:20:54.911Z,4.65
2019-03-06T08:23:25.568Z,4.37
2019-03-06T08:25:53.702Z,5.30
2019-03-06T08:28:21.764Z,4.80
2019-03-06T08:30:53.391Z,4.45
2019-03-06T08:33:22.356Z,5.22
2019-03-06T08:35:50.409Z,5.82
2019-03-06T08:38:18.481Z,5.00
2019-03-06T08:40:46.566Z,4.20
2019-03-06T08:43:14.583Z,3.97
2019-03-06T08:45:49.236Z,4.00
2019-03-06T08:48:23.146Z,4.75
2019-03-06T08:50:53.805Z,4.53
2019-03-06T08:53:24.345Z,4.15
2019-03-06T08:55:58.900Z,3.95
2019-03-06T08:58:33.011Z,5.78
2019-03-06T09:01:13.354Z,5.40
2019-03-06T09:03:41.478Z,4.37
2019-03-06T09:06:12.921Z,5.03
2019-03-06T09:08:45.736Z,3.60
2019-03-06T09:11:14.225Z,4.40
2019-03-06T09:13:43.208Z,3.65
2019-03-06T09:16:17.831Z,3.60
2019-03-06T09:19:02.683Z,3.05
2019-03-06T09:24:25.331Z,3.90
2019-03-06T09:26:53.363Z,3.20
2019-03-06T09:29:24.028Z,4.25
2019-03-06T09:31:52.503Z,4.70
2019-03-06T09:34:35.426Z,5.28
2019-03-06T09:37:08.771Z,2.97
2019-03-06T09:39:54.574Z,4.20
2019-03-06T09:42:29.219Z,4.35
2019-03-06T09:44:57.260Z,3.35
2019-03-06T09:47:27.771Z,3.05
2019-03-06T09:49:59.151Z,3.05
2019-03-06T09:52:32.836Z,4.30
2019-03-06T09:55:05.120Z,6.37
2019-03-06T09:57:34.791Z,4.03
2019-03-06T10:00:03.593Z,4.72
2019-03-06T10:02:32.408Z,2.80
2019-03-06T10:05:01.812Z,4.27
2019-03-06T10:07:46.347Z,2.60
2019-03-06T10:10:29.032Z,4.73
2019-03-06T10:12:57.082Z,4.10
2019-03-06T10:15:26.334Z,3.22
2019-03-06T10:20:52.272Z,2.80
2019-03-06T10:23:20.347Z,4.18
2019-03-06T10:25:48.380Z,5.78
2019-03-06T10:28:16.487Z,3.58
2019-03-06T10:30:44.562Z,2.25
2019-03-06T10:33:12.642Z,2.70
2019-03-06T10:35:40.711Z,3.85
2019-03-06T10:38:16.424Z,3.17
2019-03-06T10:40:36.798Z,2.05
2019-03-06T10:43:04.913Z,3.10
2019-03-06T10:45:39.025Z,4.07
2019-03-06T10:48:01.043Z,3.90
2019-03-06T10:50:30.767Z,3.00
2019-03-06T10:52:57.167Z,3.80
2019-03-06T10:55:26.083Z,3.12
2019-03-06T10:57:54.146Z,2.50
2019-03-06T11:00:28.563Z,2.53
2019-03-06T11:02:56.977Z,1.30
2019-03-06T11:05:27.909Z,3.35
2019-03-06T11:07:55.991Z,4.57
2019-03-06T11:10:26.692Z,3.47
2019-03-06T11:12:52.801Z,2.87
2019-03-06T11:15:20.900Z,1.27
2019-03-06T11:17:48.983Z,1.73
2019-03-06T11:20:34.580Z,1.90
2019-03-06T11:23:02.708Z,4.97
2019-03-06T11:25:30.787Z,2.75
2019-03-06T11:27:58.822Z,2.83
2019-03-06T11:30:42.588Z,4.43
2019-03-06T11:33:10.860Z,2.00
2019-03-06T11:35:38.920Z,2.12
2019-03-06T11:38:07.819Z,3.03
2019-03-06T11:40:35.891Z,4.20
2019-03-06T11:43:03.962Z,2.50
2019-03-06T11:45:32.026Z,3.17
2019-03-06T11:48:00.812Z,2.10
2019-03-06T11:50:28.872Z,2.80
2019-03-06T11:52:57.779Z,1.45
2019-03-06T11:55:25.855Z,1.70
2019-03-06T11:57:53.903Z,2.05
2019-03-06T12:00:37.646Z,1.10
2019-03-06T12:03:05.678Z,2.22
2019-03-06T12:05:33.799Z,4.47
2019-03-06T12:08:02.625Z,3.23
2019-03-06T12:10:31.456Z,5.60
2019-03-06T12:12:59.047Z,4.25
2019-03-06T12:15:27.100Z,1.70
2019-03-06T12:17:55.135Z,3.40
2019-03-06T12:20:23.160Z,3.50
2019-03-06T12:22:51.216Z,2.30
2019-03-06T12:25:19.310Z,1.55
2019-03-06T12:27:47.348Z,4.10
2019-03-06T12:30:15.406Z,3.83
2019-03-06T12:32:45.631Z,3.85
2019-03-06T12:35:12.744Z,2.40
2019-03-06T12:37:46.846Z,2.33
2019-03-06T12:40:13.059Z,3.28
2019-03-06T12:42:40.462Z,4.73
2019-03-06T12:45:09.295Z,5.45
2019-03-06T12:47:37.439Z,5.15
2019-03-06T12:50:09.036Z,7.68
2019-03-06T12:52:37.110Z,7.28
2019-03-06T12:55:05.194Z,3.50
2019-03-06T12:57:33.312Z,6.37
2019-03-06T13:00:01.978Z,3.10
2019-03-06T13:02:30.842Z,3.30
2019-03-06T13:04:58.852Z,5.70
2019-03-06T13:07:26.897Z,2.35
2019-03-06T13:09:56.570Z,4.20
2019-03-06T13:12:24.711Z,2.72
2019-03-06T13:14:52.756Z,1.33
2019-03-06T13:17:21.571Z,3.05
2019-03-06T13:19:49.606Z,2.85
2019-03-06T13:22:18.415Z,2.87
2019-03-06T13:24:46.496Z,4.57
2019-03-06T13:27:14.556Z,1.87
2019-03-06T13:29:42.635Z,3.28
2019-03-06T13:32:12.025Z,2.85
2019-03-06T13:34:38.740Z,4.22
2019-03-06T13:37:06.847Z,2.25
2019-03-06T13:39:35.618Z,3.10
2019-03-06T13:42:03.680Z,3.17
2019-03-06T13:44:32.587Z,3.37
2019-03-06T13:47:00.673Z,2.55
2019-03-06T13:49:28.707Z,3.35
2019-03-06T13:51:56.799Z,4.65
2019-03-06T13:54:24.868Z,2.03
2019-03-06T13:56:52.935Z,1.95
2019-03-06T13:59:20.975Z,1.40
2019-03-06T14:01:49.064Z,4.25
2019-03-06T14:04:17.153Z,4.23
2019-03-06T14:06:45.208Z,2.85
2019-03-06T14:09:13.295Z,4.93
2019-03-06T14:11:41.332Z,7.05
2019-03-06T14:14:09.447Z,2.45
2019-03-06T14:16:37.494Z,3.47
2019-03-06T14:19:06.312Z,4.82
2019-03-06T14:21:34.353Z,3.00
2019-03-06T14:24:02.443Z,3.60
2019-03-06T14:26:30.478Z,2.72
2019-03-06T14:28:59.405Z,4.28
2019-03-06T14:31:27.440Z,3.70
2019-03-06T14:33:56.255Z,3.87
2019-03-06T14:36:24.323Z,2.90
2019-03-06T14:38:52.412Z,2.72
2019-03-06T14:41:20.469Z,5.53
2019-03-06T14:43:48.535Z,7.15
2019-03-06T14:46:17.316Z,5.13
2019-03-06T14:48:45.374Z,3.45
2019-03-06T14:51:14.175Z,3.28
2019-03-06T14:53:42.267Z,6.70
2019-03-06T14:56:10.315Z,3.08
2019-03-06T14:58:38.378Z,3.25
2019-03-06T15:01:07.180Z,2.72
2019-03-06T15:03:35.235Z,5.47
2019-03-06T15:06:03.287Z,4.28
2019-03-06T15:08:31.404Z,3.65
2019-03-06T15:10:59.463Z,7.40
2019-03-06T15:13:27.631Z,6.68
2019-03-06T15:15:56.415Z,5.60
2019-03-06T15:18:24.468Z,4.53
2019-03-06T15:20:53.388Z,5.32
2019-03-06T15:23:21.463Z,3.62
2019-03-06T15:25:49.506Z,4.45
2019-03-06T15:28:18.419Z,3.05
2019-03-06T15:30:46.581Z,4.28
2019-03-06T15:33:14.703Z,2.78
2019-03-06T15:35:42.709Z,3.20
2019-03-06T15:38:11.508Z,5.53
2019-03-06T15:40:40.634Z,4.23
2019-03-06T15:43:08.348Z,7.78
2019-03-06T15:45:37.151Z,5.72
2019-03-06T15:48:05.211Z,3.75
2019-03-06T15:50:34.024Z,2.50
2019-03-06T15:53:02.799Z,4.13
2019-03-06T15:55:30.977Z,7.40
2019-03-06T15:57:59.201Z,5.53
2019-03-06T16:00:28.970Z,4.03
2019-03-06T16:02:56.999Z,2.70
2019-03-06T16:05:25.072Z,6.32
2019-03-06T16:07:53.151Z,5.95
2019-03-06T16:10:22.011Z,2.35
2019-03-06T16:12:50.014Z,4.53
2019-03-06T16:15:18.828Z,5.32
2019-03-06T16:17:47.075Z,4.20
2019-03-06T16:20:16.636Z,7.80
2019-03-06T16:22:45.489Z,7.37
2019-03-06T16:25:13.552Z,5.65
2019-03-06T16:27:42.348Z,6.23
2019-03-06T16:30:12.347Z,4.80
2019-03-06T16:32:40.419Z,3.22
2019-03-06T16:35:08.506Z,3.62
2019-03-06T16:37:36.551Z,6.68
2019-03-06T16:40:12.215Z,5.68
2019-03-06T16:42:41.003Z,3.83
2019-03-06T16:45:09.051Z,4.57
2019-03-06T16:47:38.584Z,6.72
2019-03-06T16:50:13.495Z,4.20
2019-03-06T16:52:34.829Z,4.80
2019-03-06T16:55:02.896Z,4.95
2019-03-06T16:57:31.674Z,3.57
2019-03-06T17:00:00.578Z,4.70
2019-03-06T17:02:28.612Z,5.35
2019-03-06T17:04:56.716Z,7.20
2019-03-06T17:07:25.610Z,7.77
2019-03-06T17:09:53.679Z,10.18
2019-03-06T17:12:21.732Z,10.82
2019-03-06T17:14:50.549Z,8.18
2019-03-06T17:17:18.593Z,10.60
2019-03-06T17:19:46.780Z,11.57
2019-03-06T17:22:14.819Z,8.27
2019-03-06T17:24:42.901Z,6.45
2019-03-06T17:27:11.447Z,4.45
2019-03-06T17:29:39.459Z,5.93
2019-03-06T17:32:07.508Z,7.28
2019-03-06T17:34:36.312Z,5.37
2019-03-06T17:37:05.123Z,7.95
2019-03-06T17:39:34.004Z,7.30
2019-03-06T17:42:02.049Z,8.45
2019-03-06T17:44:30.122Z,5.53
2019-03-06T17:46:58.323Z,6.93
2019-03-06T17:49:26.356Z,7.35
2019-03-06T17:51:54.979Z,5.85
2019-03-06T17:54:24.784Z,8.65
2019-03-06T17:56:52.828Z,5.07
2019-03-06T17:59:21.654Z,6.62
2019-03-06T18:01:51.735Z,5.43
2019-03-06T18:04:18.494Z,5.25
2019-03-06T18:06:46.542Z,11.90
2019-03-06T18:09:14.740Z,10.50
2019-03-06T18:11:42.805Z,5.53
2019-03-06T18:14:10.886Z,6.25
2019-03-06T18:16:38.915Z,7.57
2019-03-06T18:19:07.037Z,5.35
2019-03-06T18:21:35.080Z,5.07
2019-03-06T18:24:03.136Z,7.18
2019-03-06T18:26:31.225Z,6.78
2019-03-06T18:29:00.019Z,7.05
2019-03-06T18:31:28.062Z,7.32
2019-03-06T18:33:56.871Z,7.78
2019-03-06T18:36:24.944Z,6.68
2019-03-06T18:38:53.740Z,8.70
2019-03-06T18:41:22.071Z,4.93
2019-03-06T18:43:50.152Z,7.45
2019-03-06T18:46:18.154Z,7.70
2019-03-06T18:48:46.637Z,8.20
2019-03-06T18:51:14.724Z,7.72
2019-03-06T18:53:42.880Z,7.28
2019-03-06T18:56:10.956Z,8.68
2019-03-06T18:58:39.016Z,9.25
2019-03-06T19:01:07.039Z,8.43
2019-03-06T19:03:35.100Z,8.98
2019-03-06T19:06:03.231Z,9.23
2019-03-06T19:08:31.802Z,10.60
2019-03-06T19:11:00.092Z,8.38
2019-03-06T19:13:28.131Z,8.40
2019-03-06T19:15:56.944Z,11.80
2019-03-06T19:18:25.016Z,12.45
2019-03-06T19:20:53.089Z,11.88
2019-03-06T19:23:21.464Z,11.60
2019-03-06T19:25:49.607Z,8.95
2019-03-06T19:28:17.634Z,10.77
2019-03-06T19:30:45.780Z,13.18
2019-03-06T19:33:13.844Z,14.93
2019-03-06T19:35:41.904Z,12.35
2019-03-06T19:38:10.718Z,11.48
2019-03-06T19:40:38.765Z,11.48
2019-03-06T19:43:06.849Z,11.50
2019-03-06T19:45:34.925Z,11.75
2019-03-06T19:48:03.096Z,14.55
2019-03-06T19:50:31.165Z,12.02
2019-03-06T19:52:59.996Z,12.27
2019-03-06T19:55:28.024Z,6.90
2019-03-06T19:58:06.280Z,9.93
2019-03-06T20:00:34.337Z,9.75
2019-03-06T20:03:02.387Z,8.40
2019-03-06T20:05:31.272Z,11.27
2019-03-06T20:07:59.689Z,8.83
2019-03-06T20:10:27.709Z,7.50
2019-03-06T20:12:55.752Z,8.23
2019-03-06T20:15:23.848Z,11.48
2019-03-06T20:17:52.018Z,6.95
2019-03-06T20:20:20.793Z,8.63
2019-03-06T20:22:49.100Z,7.78
2019-03-06T20:25:17.608Z,9.10
2019-03-06T20:27:45.740Z,7.47
2019-03-06T20:30:19.192Z,13.07
2019-03-06T20:32:47.409Z,10.27
2019-03-06T20:35:15.381Z,15.55
2019-03-06T20:37:43.433Z,13.27
2019-03-06T20:40:11.492Z,14.65
2019-03-06T20:42:39.590Z,12.35
2019-03-06T20:45:09.087Z,18.60
2019-03-06T20:47:37.173Z,16.65
2019-03-06T20:50:05.206Z,13.15
2019-03-06T20:52:33.299Z,9.65
2019-03-06T20:55:01.355Z,13.18
2019-03-06T20:57:29.383Z,13.67
2019-03-06T20:59:57.427Z,12.73
2019-03-06T21:02:25.489Z,10.63
2019-03-06T21:04:53.541Z,14.07
2019-03-06T21:07:21.576Z,13.40
2019-03-06T21:09:49.797Z,11.20
2019-03-06T21:12:17.831Z,12.48
2019-03-06T21:14:45.930Z,11.55
2019-03-06T21:17:13.983Z,14.65
2019-03-06T21:19:42.897Z,12.10
2019-03-06T21:22:10.930Z,10.35
2019-03-06T21:24:39.851Z,11.38
2019-03-06T21:27:07.920Z,12.27
2019-03-06T21:29:35.971Z,11.05
2019-03-06T21:32:04.776Z,10.90
2019-03-06T21:34:32.823Z,10.50
2019-03-06T21:37:00.926Z,10.43
2019-03-06T21:39:29.008Z,10.43
2019-03-06T21:41:57.032Z,10.93
2019-03-06T21:44:25.071Z,9.32
2019-03-06T21:46:53.201Z,13.52
2019-03-06T21:49:21.244Z,8.02
2019-03-06T21:51:50.079Z,8.13
2019-03-06T21:54:18.856Z,9.25
2019-03-06T21:56:46.897Z,15.00
2019-03-06T21:59:15.000Z,36.03
2019-03-06T22:01:43.068Z,34.35
2019-03-06T22:04:11.136Z,20.25
2019-03-06T22:06:39.179Z,12.07
2019-03-06T22:09:08.084Z,12.02
2019-03-06T22:11:36.118Z,12.60
2019-03-06T22:14:04.168Z,10.88
2019-03-06T22:16:32.287Z,10.35
2019-03-06T22:19:01.118Z,11.20
2019-03-06T22:21:29.124Z,9.25
2019-03-06T22:23:57.345Z,8.57
2019-03-06T22:26:26.336Z,11.33
2019-03-06T22:28:54.383Z,10.93
2019-03-06T22:31:23.200Z,12.75
2019-03-06T22:33:51.263Z,13.65
2019-03-06T22:36:19.314Z,11.80
2019-03-06T22:38:48.115Z,10.80
2019-03-06T22:41:16.160Z,8.18
2019-03-06T22:43:44.971Z,11.00
2019-03-06T22:46:13.763Z,10.10
2019-03-06T22:48:41.823Z,9.13
2019-03-06T22:51:09.911Z,8.05
2019-03-06T22:53:38.788Z,9.83
2019-03-06T22:56:06.823Z,7.90
2019-03-06T22:58:34.863Z,9.20
2019-03-06T23:01:02.877Z,9.97
2019-03-06T23:03:31.675Z,10.30
2019-03-06T23:05:59.763Z,8.75
2019-03-06T23:08:28.541Z,9.65
2019-03-06T23:10:56.601Z,10.23
2019-03-06T23:13:25.391Z,8.15
2019-03-06T23:15:53.429Z,7.78
2019-03-06T23:18:21.539Z,11.35
2019-03-06T23:20:49.604Z,10.40
2019-03-06T23:23:17.640Z,11.68
2019-03-06T23:25:45.701Z,8.13
2019-03-06T23:28:13.735Z,10.27
2019-03-06T23:30:41.779Z,10.48
2019-03-06T23:33:10.582Z,11.43
2019-03-06T23:35:38.654Z,8.82
2019-03-06T23:38:06.700Z,7.93
2019-03-06T23:40:36.223Z,8.35
2019-03-06T23:43:04.271Z,10.35
2019-03-06T23:45:33.072Z,9.80
2019-03-06T23:48:01.887Z,10.50
2019-03-06T23:50:29.942Z,11.30
2019-03-06T23:52:59.566Z,11.10
2019-03-06T23:55:28.141Z,10.07
2019-03-06T23:57:56.195Z,10.82
